Hilo, Hawaii
Current Conditions -  °F | °C
As of 6:53 PM on Saturday 22 Nov 2014 (Local Time) from PHTO Reporting Station
Overcast Overcast  
Wind Chill: 71°   Ceiling: 5000
Heat Index: 71°   Visibility: 10mi
Dew Point: 69°   Wind: 6mph
Humidity: 93%   Direction: 210°SSW
Pressure: 30.03"   Gusts: NA
Location:  19.72°N, 155.08°W
Report Text: PHTO 230453Z 21005KT 10SM OVC050 22/21 A3003 RMK AO2 RAE40 SLP169 P0001 T02170206 $
Loading
Personal Weather Stations






























Interactive Weather Map New forecast layout! Learn more

10-Day Weather Forecast

Advertisements
Track Severe Weather on mobile